createdAt,value
2022-09-23T00:01:02.501Z,3.55
2022-09-23T00:03:31.425Z,4.93
2022-09-23T00:06:03.386Z,4.45
2022-09-23T00:08:31.617Z,3.83
2022-09-23T00:11:04.707Z,5.88
2022-09-23T00:13:32.332Z,5.97
2022-09-23T00:16:02.973Z,3.83
2022-09-23T00:18:30.536Z,4.43
2022-09-23T00:20:58.393Z,5.07
2022-09-23T00:23:26.163Z,5.30
2022-09-23T00:26:00.648Z,4.05
2022-09-23T00:28:28.374Z,4.82
2022-09-23T00:30:56.380Z,4.60
2022-09-23T00:33:24.353Z,4.47
2022-09-23T00:35:52.070Z,5.75
2022-09-23T00:38:20.079Z,3.70
2022-09-23T00:40:47.858Z,3.70
2022-09-23T00:43:15.852Z,3.95
2022-09-23T00:45:45.925Z,3.78
2022-09-23T00:48:17.066Z,4.55
2022-09-23T00:53:14.337Z,3.90
2022-09-23T00:55:48.876Z,3.03
2022-09-23T00:58:18.967Z,4.78
2022-09-23T01:00:47.221Z,4.03
2022-09-23T01:03:15.356Z,3.78
2022-09-23T01:05:43.323Z,3.63
2022-09-23T01:08:12.259Z,3.53
2022-09-23T01:10:51.321Z,3.25
2022-09-23T01:13:32.477Z,4.63
2022-09-23T01:16:09.164Z,3.88
2022-09-23T01:18:49.763Z,3.65
2022-09-23T01:21:37.756Z,4.30
2022-09-23T01:24:05.530Z,3.28
2022-09-23T01:26:42.125Z,5.00
2022-09-23T01:29:22.168Z,3.47
2022-09-23T01:31:56.752Z,3.80
2022-09-23T01:34:27.142Z,4.03
2022-09-23T01:36:57.746Z,4.47
2022-09-23T01:39:34.492Z,3.20
2022-09-23T01:42:05.612Z,3.30
2022-09-23T01:47:11.146Z,3.25
2022-09-23T01:49:38.934Z,3.33
2022-09-23T01:52:10.133Z,3.20
2022-09-23T01:57:13.286Z,3.13
2022-09-23T01:59:43.358Z,3.38
2022-09-23T02:02:16.891Z,2.88
2022-09-23T02:04:55.030Z,3.25
2022-09-23T02:07:25.232Z,3.67
2022-09-23T02:10:00.070Z,3.90
2022-09-23T02:12:29.850Z,4.63
2022-09-23T02:15:00.357Z,3.63
2022-09-23T02:17:31.801Z,3.90
2022-09-23T02:20:02.257Z,3.47
2022-09-23T02:22:47.081Z,3.25
2022-09-23T02:25:17.411Z,3.33
2022-09-23T02:27:50.241Z,3.63
2022-09-23T02:30:22.486Z,3.58
2022-09-23T02:33:04.178Z,3.20
2022-09-23T02:35:54.724Z,3.85
2022-09-23T02:38:40.830Z,3.70
2022-09-23T02:41:11.304Z,3.30
2022-09-23T02:44:14.842Z,3.20
2022-09-23T02:46:45.724Z,3.20
2022-09-23T02:49:24.077Z,3.45
2022-09-23T02:51:52.060Z,3.20
2022-09-23T02:54:21.614Z,3.28
2022-09-23T02:56:49.691Z,3.20
2022-09-23T02:59:19.701Z,3.08
2022-09-23T03:01:47.775Z,3.38
2022-09-23T03:04:25.784Z,3.53
2022-09-23T03:07:01.784Z,3.55
2022-09-23T03:09:42.585Z,3.80
2022-09-23T03:12:10.228Z,4.30
2022-09-23T03:14:48.140Z,3.88
2022-09-23T03:17:21.364Z,3.60
2022-09-23T03:19:49.016Z,3.17
2022-09-23T03:22:28.645Z,3.53
2022-09-23T03:24:59.494Z,3.55
2022-09-23T03:27:28.422Z,3.80
2022-09-23T03:29:56.817Z,3.28
2022-09-23T03:32:26.738Z,3.45
2022-09-23T03:34:56.048Z,4.05
2022-09-23T03:37:23.713Z,3.45
2022-09-23T03:40:14.357Z,3.97
2022-09-23T03:42:42.564Z,3.80
2022-09-23T03:45:13.071Z,3.42
2022-09-23T03:47:42.251Z,3.45
2022-09-23T03:50:13.241Z,3.35
2022-09-23T03:52:41.053Z,4.15
2022-09-23T03:55:09.006Z,3.85
2022-09-23T03:57:36.885Z,3.72
2022-09-23T04:00:06.328Z,3.67
2022-09-23T04:02:39.380Z,3.08
2022-09-23T04:05:07.847Z,3.70
2022-09-23T04:07:35.820Z,4.03
2022-09-23T04:10:03.361Z,3.75
2022-09-23T04:12:30.876Z,4.05
2022-09-23T04:14:58.406Z,3.10
2022-09-23T04:17:25.871Z,3.63
2022-09-23T04:19:53.460Z,4.10
2022-09-23T04:22:21.293Z,2.85
2022-09-23T04:24:49.192Z,3.35
2022-09-23T04:27:16.748Z,3.55
2022-09-23T04:29:44.533Z,3.47
2022-09-23T04:32:12.095Z,3.53
2022-09-23T04:34:39.598Z,3.70
2022-09-23T04:37:07.232Z,3.47
2022-09-23T04:39:34.806Z,3.30
2022-09-23T04:42:04.170Z,3.85
2022-09-23T04:44:32.174Z,3.30
2022-09-23T04:46:59.855Z,3.05
2022-09-23T04:49:27.499Z,3.67
2022-09-23T04:51:55.209Z,3.60
2022-09-23T04:54:22.824Z,3.63
2022-09-23T04:56:50.526Z,3.03
2022-09-23T04:59:18.293Z,3.95
2022-09-23T05:01:46.056Z,3.72
2022-09-23T05:04:14.369Z,4.47
2022-09-23T05:06:45.371Z,4.10
2022-09-23T05:09:16.217Z,3.92
2022-09-23T05:11:44.412Z,3.30
2022-09-23T05:14:12.285Z,4.00
2022-09-23T05:16:40.915Z,4.20
2022-09-23T05:19:08.628Z,4.35
2022-09-23T05:21:37.774Z,4.35
2022-09-23T05:24:05.461Z,3.83
2022-09-23T05:26:33.576Z,3.72
2022-09-23T05:29:01.472Z,3.58
2022-09-23T05:31:30.043Z,4.10
2022-09-23T05:33:58.919Z,5.20
2022-09-23T05:36:26.788Z,4.10
2022-09-23T05:38:57.674Z,4.05
2022-09-23T05:41:26.510Z,3.92
2022-09-23T05:43:55.186Z,3.72
2022-09-23T05:46:30.153Z,4.50
2022-09-23T05:49:02.085Z,4.07
2022-09-23T05:51:31.755Z,3.58
2022-09-23T05:54:00.069Z,4.03
2022-09-23T05:56:28.776Z,3.88
2022-09-23T05:59:00.865Z,4.10
2022-09-23T06:01:31.994Z,4.15
2022-09-23T06:06:32.036Z,3.78
2022-09-23T06:09:00.433Z,3.67
2022-09-23T06:11:32.420Z,3.88
2022-09-23T06:14:01.281Z,3.85
2022-09-23T06:16:30.234Z,3.90
2022-09-23T06:19:03.027Z,4.03
2022-09-23T06:21:34.219Z,4.63
2022-09-23T06:24:02.924Z,3.85
2022-09-23T06:26:34.248Z,3.85
2022-09-23T06:29:02.892Z,3.03
2022-09-23T06:31:31.093Z,3.80
2022-09-23T06:34:09.149Z,4.57
2022-09-23T06:36:43.970Z,3.78
2022-09-23T06:39:12.886Z,3.78
2022-09-23T06:41:40.538Z,4.43
2022-09-23T06:44:13.486Z,4.45
2022-09-23T06:46:41.411Z,3.95
2022-09-23T06:49:09.272Z,4.57
2022-09-23T06:51:36.938Z,4.45
2022-09-23T06:54:05.039Z,4.05
2022-09-23T06:56:38.490Z,4.47
2022-09-23T06:59:07.305Z,5.05
2022-09-23T07:01:35.529Z,3.53
2022-09-23T07:04:03.800Z,4.13
2022-09-23T07:06:31.560Z,4.35
2022-09-23T07:09:01.200Z,4.07
2022-09-23T07:11:28.996Z,4.50
2022-09-23T07:13:56.801Z,4.82
2022-09-23T07:16:24.925Z,3.92
2022-09-23T07:18:53.647Z,3.92
2022-09-23T07:21:21.372Z,4.15
2022-09-23T07:23:52.857Z,4.30
2022-09-23T07:26:21.299Z,3.78
2022-09-23T07:28:49.000Z,4.80
2022-09-23T07:31:26.461Z,4.88
2022-09-23T07:34:01.408Z,4.22
2022-09-23T07:36:32.757Z,4.05
2022-09-23T07:39:02.303Z,4.32
2022-09-23T07:41:30.878Z,4.43
2022-09-23T07:44:00.753Z,3.97
2022-09-23T07:46:30.418Z,4.35
2022-09-23T07:48:58.542Z,4.43
2022-09-23T07:51:36.061Z,3.90
2022-09-23T07:54:07.699Z,4.43
2022-09-23T07:56:36.390Z,3.60
2022-09-23T07:59:09.202Z,4.38
2022-09-23T08:01:42.265Z,3.58
2022-09-23T08:04:22.566Z,4.05
2022-09-23T08:06:54.230Z,3.90
2022-09-23T08:09:24.726Z,3.13
2022-09-23T08:11:52.979Z,3.40
2022-09-23T08:14:22.653Z,4.25
2022-09-23T08:16:50.972Z,3.33
2022-09-23T08:19:19.413Z,3.50
2022-09-23T08:21:47.646Z,3.70
2022-09-23T08:24:17.271Z,3.20
2022-09-23T08:26:45.866Z,3.22
2022-09-23T08:29:14.772Z,4.05
2022-09-23T08:31:43.248Z,3.50
2022-09-23T08:34:12.360Z,3.90
2022-09-23T08:36:40.373Z,3.40
2022-09-23T08:39:09.598Z,3.40
2022-09-23T08:41:58.992Z,3.20
2022-09-23T08:44:31.600Z,3.38
2022-09-23T08:47:11.500Z,4.18
2022-09-23T08:49:42.377Z,3.92
2022-09-23T08:54:38.303Z,3.40
2022-09-23T08:57:08.534Z,3.55
2022-09-23T08:59:43.957Z,3.53
2022-09-23T09:02:22.355Z,4.00
2022-09-23T09:05:00.926Z,3.65
2022-09-23T09:07:38.420Z,3.92
2022-09-23T09:10:17.457Z,3.78
2022-09-23T09:12:51.132Z,3.22
2022-09-23T09:15:20.799Z,4.28
2022-09-23T09:18:01.336Z,3.17
2022-09-23T09:20:41.765Z,4.75
2022-09-23T09:23:14.886Z,2.95
2022-09-23T09:25:53.509Z,3.38
2022-09-23T09:28:32.109Z,3.92
2022-09-23T09:31:04.205Z,3.35
2022-09-23T09:33:36.589Z,4.50
2022-09-23T09:36:30.838Z,4.25
2022-09-23T09:38:59.488Z,4.70
2022-09-23T09:41:31.711Z,3.72
2022-09-23T09:44:03.723Z,5.20
2022-09-23T09:46:34.500Z,3.42
2022-09-23T09:49:12.937Z,3.17
2022-09-23T09:51:42.857Z,2.53
2022-09-23T09:54:18.490Z,2.50
2022-09-23T09:59:23.723Z,2.72
2022-09-23T10:02:11.482Z,3.42
2022-09-23T10:04:39.838Z,3.60
2022-09-23T10:07:10.679Z,3.42
2022-09-23T10:09:40.121Z,3.72
2022-09-23T10:12:15.990Z,2.75
2022-09-23T10:14:43.905Z,2.58
2022-09-23T10:20:10.911Z,3.40
2022-09-23T10:22:40.176Z,3.25
2022-09-23T10:25:10.788Z,2.92
2022-09-23T10:27:38.918Z,2.95
2022-09-23T10:30:21.703Z,2.97
2022-09-23T10:32:50.258Z,1.92
2022-09-23T10:35:23.847Z,2.58
2022-09-23T10:37:55.628Z,2.78
2022-09-23T10:40:58.953Z,2.20
2022-09-23T10:43:51.611Z,3.95
2022-09-23T10:46:41.132Z,2.80
2022-09-23T10:49:15.167Z,2.10
2022-09-23T10:51:45.867Z,2.35
2022-09-23T10:54:39.815Z,2.35
2022-09-23T10:57:38.300Z,3.35
2022-09-23T11:00:18.705Z,3.38
2022-09-23T11:05:26.407Z,2.47
2022-09-23T11:08:00.169Z,2.13
2022-09-23T11:10:49.375Z,3.28
2022-09-23T11:13:24.778Z,2.75
2022-09-23T11:15:55.630Z,2.42
2022-09-23T11:18:59.003Z,2.90
2022-09-23T11:21:52.264Z,2.92
2022-09-23T11:24:35.395Z,2.10
2022-09-23T11:27:11.385Z,2.67
2022-09-23T11:29:42.712Z,3.78
2022-09-23T11:32:16.621Z,2.58
2022-09-23T11:34:54.965Z,2.88
2022-09-23T11:37:25.934Z,2.67
2022-09-23T11:39:53.756Z,2.97
2022-09-23T11:42:29.850Z,3.00
2022-09-23T11:45:03.086Z,2.72
2022-09-23T11:47:39.926Z,3.05
2022-09-23T11:50:20.552Z,2.63
2022-09-23T11:55:22.537Z,2.22
2022-09-23T11:57:59.043Z,1.98
2022-09-23T12:00:34.199Z,4.07
2022-09-23T12:03:31.467Z,2.08
2022-09-23T12:10:58.198Z,2.65
2022-09-23T12:14:01.306Z,2.30
2022-09-23T12:16:44.714Z,3.15
2022-09-23T12:19:27.067Z,2.35
2022-09-23T12:22:13.492Z,1.80
2022-09-23T12:24:59.464Z,4.22
2022-09-23T12:27:33.245Z,3.35
2022-09-23T12:30:02.978Z,2.15
2022-09-23T12:32:30.940Z,2.30
2022-09-23T12:34:59.812Z,2.90
2022-09-23T12:37:29.438Z,2.33
2022-09-23T12:40:00.364Z,1.90
2022-09-23T12:42:31.099Z,2.50
2022-09-23T12:45:19.885Z,2.38
2022-09-23T12:47:47.702Z,1.92
2022-09-23T12:50:34.225Z,2.10
2022-09-23T12:53:21.932Z,2.55
2022-09-23T12:55:51.718Z,2.70
2022-09-23T12:58:39.123Z,2.85
2022-09-23T13:01:09.957Z,3.53
2022-09-23T13:04:01.045Z,2.20
2022-09-23T13:06:41.023Z,2.05
2022-09-23T13:09:25.207Z,2.65
2022-09-23T13:11:54.291Z,1.92
2022-09-23T13:14:27.368Z,1.80
2022-09-23T13:16:57.349Z,2.15
2022-09-23T13:19:36.634Z,2.28
2022-09-23T13:22:11.519Z,2.53
2022-09-23T13:24:42.096Z,2.38
2022-09-23T13:27:42.596Z,1.90
2022-09-23T13:32:44.240Z,3.00
2022-09-23T13:35:15.837Z,2.60
2022-09-23T13:37:48.106Z,1.70
2022-09-23T13:40:23.875Z,2.05
2022-09-23T13:43:00.534Z,2.05
2022-09-23T13:45:34.233Z,2.47
2022-09-23T13:48:04.523Z,1.83
2022-09-23T13:50:35.012Z,2.72
2022-09-23T13:53:06.598Z,2.60
2022-09-23T13:55:38.902Z,1.85
2022-09-23T13:58:17.385Z,2.75
2022-09-23T14:00:45.768Z,1.92
2022-09-23T14:03:17.471Z,1.65
2022-09-23T14:05:46.397Z,2.03
2022-09-23T14:08:14.187Z,2.03
2022-09-23T14:10:45.861Z,2.47
2022-09-23T14:13:15.674Z,2.05
2022-09-23T14:16:05.808Z,1.67
2022-09-23T14:18:47.090Z,1.90
2022-09-23T14:21:26.606Z,2.30
2022-09-23T14:23:54.309Z,2.45
2022-09-23T14:26:22.487Z,2.03
2022-09-23T14:28:50.482Z,1.90
2022-09-23T14:31:18.224Z,2.00
2022-09-23T14:33:47.209Z,2.28
2022-09-23T14:36:35.538Z,2.38
2022-09-23T14:39:07.851Z,3.70
2022-09-23T14:41:38.631Z,1.80
2022-09-23T14:44:07.854Z,2.03
2022-09-23T14:46:37.779Z,2.30
2022-09-23T14:49:11.612Z,1.67
2022-09-23T14:51:56.023Z,2.17
2022-09-23T14:54:24.599Z,2.35
2022-09-23T14:56:52.848Z,2.30
2022-09-23T14:59:26.505Z,1.80
2022-09-23T15:01:54.350Z,2.30
2022-09-23T15:04:24.915Z,1.80
2022-09-23T15:09:43.210Z,2.33
2022-09-23T15:12:21.579Z,1.90
2022-09-23T15:14:55.104Z,1.90
2022-09-23T15:17:27.008Z,2.10
2022-09-23T15:23:11.826Z,2.55
2022-09-23T15:28:26.016Z,2.10
2022-09-23T15:31:11.447Z,2.63
2022-09-23T15:36:44.822Z,2.10
2022-09-23T15:41:59.877Z,2.50
2022-09-23T15:44:30.271Z,1.52
2022-09-23T16:48:13.779Z,2.30
2022-09-23T16:50:44.928Z,2.80
2022-09-23T16:53:12.972Z,2.85
2022-09-23T17:01:24.062Z,3.50
2022-09-23T17:03:51.961Z,2.83
2022-09-23T17:06:20.321Z,3.17
2022-09-23T17:11:51.736Z,2.83
2022-09-23T17:14:22.954Z,2.88
2022-09-23T17:16:51.248Z,2.58
2022-09-23T17:19:20.510Z,2.90
2022-09-23T17:21:52.324Z,3.60
2022-09-23T17:24:23.133Z,3.10
2022-09-23T17:26:53.419Z,3.08
2022-09-23T17:29:21.205Z,4.78
2022-09-23T17:32:08.542Z,3.67
2022-09-23T17:34:37.124Z,3.35
2022-09-23T17:37:04.829Z,4.25
2022-09-23T17:45:04.037Z,4.60
2022-09-23T17:50:54.613Z,3.85
2022-09-23T17:53:23.017Z,4.13
2022-09-23T17:56:01.749Z,3.60
2022-09-23T17:58:32.482Z,3.97
2022-09-23T18:01:01.303Z,3.75
2022-09-23T18:03:31.377Z,3.20
2022-09-23T18:11:40.701Z,4.47
2022-09-23T18:14:16.047Z,3.15
2022-09-23T18:19:30.841Z,2.80
2022-09-23T18:25:13.068Z,4.13
2022-09-23T18:27:56.973Z,3.38
2022-09-23T18:38:37.917Z,4.18
2022-09-23T18:41:08.458Z,5.35
2022-09-23T18:54:55.819Z,5.07
2022-09-23T18:57:23.552Z,6.13
2022-09-23T19:02:40.242Z,4.90
2022-09-23T19:05:08.941Z,5.55
2022-09-23T19:07:48.948Z,5.22
2022-09-23T19:10:17.505Z,5.57
2022-09-23T19:12:47.016Z,5.13
2022-09-23T19:15:14.920Z,4.88
2022-09-23T19:17:42.827Z,4.97
2022-09-23T19:20:10.930Z,5.82
2022-09-23T19:22:38.574Z,5.25
2022-09-23T19:25:06.503Z,5.82
2022-09-23T19:27:35.898Z,5.28
2022-09-23T19:30:03.857Z,5.82
2022-09-23T19:32:33.345Z,7.93
2022-09-23T19:35:01.209Z,5.35
2022-09-23T19:37:29.027Z,4.53
2022-09-23T19:39:56.907Z,4.47
2022-09-23T19:42:27.802Z,4.63
2022-09-23T19:47:23.101Z,5.35
2022-09-23T19:49:51.195Z,5.50
2022-09-23T19:52:19.266Z,4.75
2022-09-23T19:54:48.725Z,5.32
2022-09-23T19:57:18.372Z,5.60
2022-09-23T19:59:46.485Z,5.95
2022-09-23T20:02:14.650Z,5.65
2022-09-23T20:04:43.060Z,6.22
2022-09-23T20:07:15.487Z,6.10
2022-09-23T20:09:43.389Z,5.47
2022-09-23T20:12:11.161Z,6.43
2022-09-23T20:14:39.006Z,6.13
2022-09-23T20:17:07.809Z,7.03
2022-09-23T20:19:35.527Z,7.15
2022-09-23T20:22:21.870Z,7.65
2022-09-23T20:24:49.632Z,7.63
2022-09-23T20:27:17.578Z,7.35
2022-09-23T20:29:45.488Z,7.43
2022-09-23T20:32:13.426Z,8.80
2022-09-23T20:34:46.727Z,7.97
2022-09-23T20:37:17.604Z,6.10
2022-09-23T20:42:14.152Z,6.30
2022-09-23T20:44:43.673Z,6.55
2022-09-23T20:47:15.163Z,6.25
2022-09-23T20:49:44.007Z,6.65
2022-09-23T20:52:12.301Z,6.32
2022-09-23T20:54:40.401Z,6.70
2022-09-23T20:57:09.427Z,7.35
2022-09-23T20:59:37.538Z,6.93
2022-09-23T21:02:05.822Z,6.70
2022-09-23T21:04:35.237Z,7.30
2022-09-23T21:07:05.012Z,7.47
2022-09-23T21:09:32.729Z,7.72
2022-09-23T21:12:00.453Z,7.82
2022-09-23T21:14:28.196Z,6.60
2022-09-23T21:16:57.332Z,7.13
2022-09-23T21:19:25.175Z,6.82
2022-09-23T21:21:53.052Z,6.68
2022-09-23T21:27:09.072Z,6.93
2022-09-23T21:29:37.023Z,6.40
2022-09-23T21:32:05.253Z,6.90
2022-09-23T21:34:32.915Z,6.70
2022-09-23T21:37:00.908Z,6.63
2022-09-23T21:39:28.594Z,6.35
2022-09-23T21:41:56.666Z,6.78
2022-09-23T21:44:25.006Z,7.07
2022-09-23T21:46:54.438Z,6.35
2022-09-23T21:49:22.225Z,6.72
2022-09-23T21:51:59.149Z,8.32
2022-09-23T21:54:27.184Z,6.45
2022-09-23T21:56:55.630Z,6.30
2022-09-23T21:59:23.305Z,5.63
2022-09-23T22:01:54.206Z,5.55
2022-09-23T22:04:22.288Z,5.32
2022-09-23T22:06:50.130Z,6.10
2022-09-23T22:09:19.034Z,6.70
2022-09-23T22:12:06.485Z,5.85
2022-09-23T22:14:34.325Z,6.15
2022-09-23T22:17:05.297Z,6.18
2022-09-23T22:19:35.915Z,5.78
2022-09-23T22:22:08.008Z,6.50
2022-09-23T22:24:43.083Z,6.45
2022-09-23T22:27:11.771Z,7.03
2022-09-23T22:30:02.145Z,8.02
2022-09-23T22:32:54.336Z,6.20
2022-09-23T22:35:22.935Z,6.15
2022-09-23T22:37:55.291Z,7.22
2022-09-23T22:40:24.361Z,6.90
2022-09-23T22:42:56.810Z,6.70
2022-09-23T22:45:26.107Z,6.47
2022-09-23T22:48:01.911Z,5.80
2022-09-23T22:50:33.073Z,6.03
2022-09-23T22:53:04.208Z,5.50
2022-09-23T22:55:34.423Z,6.35
2022-09-23T22:58:21.195Z,6.05
2022-09-23T23:00:57.257Z,5.63
2022-09-23T23:03:26.701Z,6.85
2022-09-23T23:05:57.559Z,8.45
2022-09-23T23:08:27.063Z,6.93
2022-09-23T23:10:55.545Z,7.05
2022-09-23T23:13:24.529Z,8.07
2022-09-23T23:15:52.238Z,7.75
2022-09-23T23:18:19.994Z,6.60
2022-09-23T23:20:48.367Z,6.78
2022-09-23T23:23:15.995Z,7.30
2022-09-23T23:25:43.731Z,6.70
2022-09-23T23:28:11.562Z,7.40
2022-09-23T23:30:39.377Z,7.22
2022-09-23T23:33:07.137Z,7.45
2022-09-23T23:35:34.895Z,9.20
2022-09-23T23:38:05.809Z,6.82
2022-09-23T23:40:37.805Z,6.95
2022-09-23T23:43:05.769Z,7.07
2022-09-23T23:45:33.403Z,8.35
2022-09-23T23:48:01.164Z,6.93
2022-09-23T23:50:28.754Z,7.40
2022-09-23T23:52:56.539Z,7.60
2022-09-23T23:55:24.176Z,7.45
2022-09-23T23:57:52.178Z,8.45
